createdAt,value
2019-04-16T00:00:35.288Z,38.93
2019-04-16T00:03:03.708Z,38.67
2019-04-16T00:05:33.911Z,37.53
2019-04-16T00:08:26.718Z,42.40
2019-04-16T00:10:51.317Z,39.90
2019-04-16T00:13:27.357Z,39.03
2019-04-16T00:15:56.069Z,39.20
2019-04-16T00:18:24.861Z,39.50
2019-04-16T00:21:13.367Z,38.83
2019-04-16T00:23:46.816Z,42.93
2019-04-16T00:26:15.449Z,38.83
2019-04-16T00:28:43.749Z,44.77
2019-04-16T00:31:12.525Z,41.35
2019-04-16T00:33:42.702Z,39.35
2019-04-16T00:36:11.464Z,35.78
2019-04-16T00:38:41.227Z,44.60
2019-04-16T00:41:10.060Z,39.30
2019-04-16T00:43:38.763Z,37.85
2019-04-16T00:46:08.480Z,40.17
2019-04-16T00:48:37.769Z,41.23
2019-04-16T00:51:06.881Z,41.75
2019-04-16T00:53:36.390Z,43.40
2019-04-16T00:56:05.867Z,41.85
2019-04-16T00:58:34.669Z,39.70
2019-04-16T01:01:03.247Z,42.88
2019-04-16T01:03:31.942Z,42.65
2019-04-16T01:06:00.605Z,40.60
2019-04-16T01:08:29.312Z,44.65
2019-04-16T01:10:57.963Z,45.25
2019-04-16T01:13:26.297Z,45.08
2019-04-16T01:15:54.935Z,40.43
2019-04-16T01:18:23.642Z,40.35
2019-04-16T01:20:52.353Z,45.67
2019-04-16T01:23:21.080Z,42.93
2019-04-16T01:25:49.682Z,47.45
2019-04-16T01:28:26.088Z,47.45
2019-04-16T01:30:56.114Z,42.67
2019-04-16T01:33:32.396Z,39.93
2019-04-16T01:36:11.742Z,45.45
2019-04-16T01:39:10.888Z,44.73
2019-04-16T01:41:26.901Z,45.05
2019-04-16T01:43:57.182Z,48.00
2019-04-16T01:46:25.865Z,48.17
2019-04-16T01:48:54.178Z,51.15
2019-04-16T01:51:22.472Z,50.33
2019-04-16T01:53:52.342Z,47.27
2019-04-16T01:56:21.420Z,45.80
2019-04-16T01:58:49.725Z,48.40
2019-04-16T02:01:18.027Z,45.85
2019-04-16T02:03:48.917Z,44.08
2019-04-16T02:06:16.991Z,48.30
2019-04-16T02:08:45.350Z,42.80
2019-04-16T02:11:14.057Z,44.93
2019-04-16T02:13:45.760Z,47.53
2019-04-16T02:16:13.085Z,45.65
2019-04-16T02:18:42.551Z,43.85
2019-04-16T02:21:11.360Z,41.60
2019-04-16T02:23:39.939Z,49.48
2019-04-16T02:26:08.628Z,49.10
2019-04-16T02:28:37.311Z,53.73
2019-04-16T02:31:13.805Z,48.40
2019-04-16T02:33:36.309Z,43.35
2019-04-16T02:36:05.021Z,50.33
2019-04-16T02:38:33.693Z,48.78
2019-04-16T02:41:02.422Z,46.90
2019-04-16T02:43:31.048Z,48.13
2019-04-16T02:45:59.758Z,55.52
2019-04-16T02:48:29.250Z,51.08
2019-04-16T02:51:14.996Z,53.25
2019-04-16T02:54:01.649Z,46.95
2019-04-16T02:56:51.543Z,46.00
2019-04-16T02:59:19.699Z,47.20
2019-04-16T03:01:59.106Z,45.17
2019-04-16T03:04:29.344Z,54.85
2019-04-16T03:07:02.744Z,50.60
2019-04-16T03:09:28.645Z,52.03
2019-04-16T03:11:57.124Z,48.95
2019-04-16T03:14:29.757Z,49.65
2019-04-16T03:17:14.129Z,40.88
2019-04-16T03:19:51.301Z,52.83
2019-04-16T03:22:21.714Z,47.55
2019-04-16T03:24:50.377Z,50.40
2019-04-16T03:27:21.876Z,48.10
2019-04-16T03:29:49.391Z,54.75
2019-04-16T03:32:18.071Z,46.15
2019-04-16T03:34:46.388Z,50.45
2019-04-16T03:37:15.053Z,49.23
2019-04-16T03:39:44.912Z,48.78
2019-04-16T03:42:13.633Z,53.57
2019-04-16T03:44:41.996Z,54.35
2019-04-16T03:47:10.642Z,53.92
2019-04-16T03:49:39.301Z,55.48
2019-04-16T03:52:09.304Z,50.85
2019-04-16T03:54:38.377Z,56.50
2019-04-16T03:57:07.020Z,48.75
2019-04-16T03:59:35.689Z,56.58
2019-04-16T04:02:04.360Z,56.33
2019-04-16T04:04:33.117Z,48.92
2019-04-16T04:07:01.428Z,52.05
2019-04-16T04:09:30.900Z,49.70
2019-04-16T04:11:59.596Z,51.18
2019-04-16T04:14:28.306Z,57.05
2019-04-16T04:16:57.042Z,57.85
2019-04-16T04:19:25.686Z,52.95
2019-04-16T04:21:54.518Z,57.98
2019-04-16T04:24:23.041Z,57.98
2019-04-16T04:26:51.721Z,54.23
2019-04-16T04:29:23.151Z,53.60
2019-04-16T04:31:50.441Z,55.52
2019-04-16T04:34:19.002Z,50.38
2019-04-16T04:36:47.705Z,50.60
2019-04-16T04:39:16.362Z,48.52
2019-04-16T04:41:45.065Z,48.10
2019-04-16T04:44:13.742Z,43.50
2019-04-16T04:46:43.266Z,45.03
2019-04-16T04:49:12.769Z,49.85
2019-04-16T04:51:43.407Z,45.15
2019-04-16T04:54:11.734Z,43.73
2019-04-16T04:56:40.440Z,45.63
2019-04-16T04:59:09.134Z,42.83
2019-04-16T05:01:37.828Z,44.55
2019-04-16T05:04:10.967Z,40.30
2019-04-16T05:06:41.349Z,46.92
2019-04-16T05:09:10.006Z,42.70
2019-04-16T05:11:38.723Z,47.10
2019-04-16T05:14:07.385Z,49.90
2019-04-16T05:16:36.165Z,41.13
2019-04-16T05:19:04.758Z,42.67
2019-04-16T05:21:33.449Z,45.95
2019-04-16T05:24:02.121Z,47.13
2019-04-16T05:26:30.444Z,48.90
2019-04-16T05:29:00.721Z,57.15
2019-04-16T05:31:31.102Z,42.58
2019-04-16T05:34:02.210Z,45.00
2019-04-16T05:36:29.668Z,47.27
2019-04-16T05:38:58.357Z,66.80
2019-04-16T05:41:27.099Z,58.08
2019-04-16T05:43:58.443Z,61.02
2019-04-16T05:46:26.042Z,65.35
2019-04-16T05:48:54.673Z,52.15
2019-04-16T05:51:24.246Z,58.90
2019-04-16T05:53:54.545Z,56.60
2019-04-16T05:56:30.451Z,57.98
2019-04-16T05:58:59.681Z,53.35
2019-04-16T06:01:33.601Z,60.83
2019-04-16T06:04:02.009Z,73.83
2019-04-16T06:06:31.862Z,63.52
2019-04-16T06:09:00.603Z,41.67
2019-04-16T06:11:35.752Z,53.70
2019-04-16T06:14:01.370Z,61.40
2019-04-16T06:16:34.402Z,54.33
2019-04-16T06:19:08.540Z,59.90
2019-04-16T06:21:56.691Z,61.92
2019-04-16T06:24:27.804Z,58.28
2019-04-16T06:26:57.949Z,60.30
2019-04-16T06:29:47.206Z,59.53
2019-04-16T06:32:20.297Z,61.60
2019-04-16T06:34:53.590Z,57.55
2019-04-16T06:37:28.403Z,58.02
2019-04-16T06:40:12.273Z,56.75
2019-04-16T06:42:51.434Z,58.58
2019-04-16T06:45:29.447Z,65.62
2019-04-16T06:48:02.376Z,66.22
2019-04-16T06:50:39.688Z,58.10
2019-04-16T06:53:19.543Z,60.73
2019-04-16T06:56:08.705Z,58.35
2019-04-16T06:58:51.248Z,64.87
2019-04-16T07:01:18.281Z,66.00
2019-04-16T07:03:59.597Z,46.63
2019-04-16T07:09:25.801Z,58.58
2019-04-16T07:11:56.838Z,61.85
2019-04-16T07:14:25.842Z,60.45
2019-04-16T07:16:59.929Z,58.50
2019-04-16T07:19:25.502Z,56.30
2019-04-16T07:21:54.037Z,55.98
2019-04-16T07:24:23.635Z,61.85
2019-04-16T07:26:56.203Z,59.85
2019-04-16T07:29:31.605Z,56.80
2019-04-16T07:32:03.261Z,62.30
2019-04-16T07:34:39.404Z,58.13
2019-04-16T07:37:21.586Z,58.13
2019-04-16T07:40:09.079Z,52.60
2019-04-16T07:42:50.997Z,49.88
2019-04-16T07:45:13.066Z,54.35
2019-04-16T07:48:01.734Z,54.75
2019-04-16T07:50:48.217Z,58.95
2019-04-16T07:53:22.564Z,56.05
2019-04-16T07:55:58.313Z,55.50
2019-04-16T07:58:28.450Z,60.92
2019-04-16T08:00:57.330Z,57.65
2019-04-16T08:03:26.827Z,52.98
2019-04-16T08:05:55.966Z,52.30
2019-04-16T08:08:25.342Z,48.73
2019-04-16T08:10:54.270Z,51.85
2019-04-16T08:13:23.780Z,54.40
2019-04-16T08:15:57.499Z,47.50
2019-04-16T08:18:26.033Z,56.13
2019-04-16T08:21:02.350Z,51.68
2019-04-16T08:23:26.591Z,49.33
2019-04-16T08:26:02.808Z,48.35
2019-04-16T08:28:26.520Z,53.60
2019-04-16T08:30:55.220Z,48.30
2019-04-16T08:33:28.318Z,50.60
2019-04-16T08:35:54.228Z,49.30
2019-04-16T08:38:25.907Z,46.37
2019-04-16T08:40:54.067Z,51.42
2019-04-16T08:43:22.792Z,48.20
2019-04-16T08:45:51.463Z,54.85
2019-04-16T08:48:20.100Z,51.18
2019-04-16T08:50:49.447Z,50.83
2019-04-16T08:53:18.286Z,46.05
2019-04-16T08:55:46.976Z,45.08
2019-04-16T08:58:15.725Z,43.35
2019-04-16T09:00:46.630Z,43.13
2019-04-16T09:03:16.335Z,44.27
2019-04-16T09:05:45.005Z,45.40
2019-04-16T09:08:22.169Z,46.33
2019-04-16T09:10:51.473Z,44.08
2019-04-16T09:13:33.639Z,44.25
2019-04-16T09:16:03.437Z,41.90
2019-04-16T09:18:50.743Z,47.70
2019-04-16T09:21:19.420Z,44.42
2019-04-16T09:24:08.849Z,47.90
2019-04-16T09:27:12.397Z,48.13
2019-04-16T09:29:53.149Z,47.95
2019-04-16T09:32:38.610Z,50.95
2019-04-16T09:35:19.750Z,51.13
2019-04-16T09:37:50.201Z,48.52
2019-04-16T09:40:37.239Z,47.33
2019-04-16T09:43:23.916Z,47.90
2019-04-16T09:45:53.002Z,47.17
2019-04-16T09:48:22.626Z,51.08
2019-04-16T09:50:51.314Z,48.52
2019-04-16T09:53:33.056Z,46.75
2019-04-16T09:55:50.680Z,49.88
2019-04-16T09:58:24.877Z,48.28
2019-04-16T10:00:55.095Z,46.53
2019-04-16T10:03:28.932Z,48.30
2019-04-16T10:05:58.568Z,48.78
2019-04-16T10:08:29.314Z,44.03
2019-04-16T10:10:58.125Z,42.20
2019-04-16T10:13:32.761Z,45.08
2019-04-16T10:24:08.998Z,43.40
2019-04-16T10:26:35.237Z,40.88
2019-04-16T10:29:14.587Z,49.27
2019-04-16T10:31:43.230Z,48.68
2019-04-16T10:34:12.022Z,44.90
2019-04-16T10:36:40.625Z,43.87
2019-04-16T10:39:16.673Z,38.15
2019-04-16T10:41:49.727Z,39.75
2019-04-16T10:44:36.588Z,38.65
2019-04-16T10:47:23.000Z,40.78
2019-04-16T10:50:02.440Z,40.50
2019-04-16T10:52:53.996Z,41.68
2019-04-16T10:55:29.968Z,45.17
2019-04-16T10:58:16.913Z,49.93
2019-04-16T11:00:47.384Z,42.33
2019-04-16T11:03:34.435Z,45.33
2019-04-16T11:06:01.489Z,45.30
2019-04-16T11:08:30.167Z,43.42
2019-04-16T11:10:58.867Z,41.75
2019-04-16T11:13:29.213Z,45.30
2019-04-16T11:15:59.483Z,46.40
2019-04-16T11:18:28.212Z,46.18
2019-04-16T11:20:56.933Z,41.92
2019-04-16T11:23:25.612Z,44.70
2019-04-16T11:25:54.229Z,43.63
2019-04-16T11:28:22.578Z,41.58
2019-04-16T11:31:01.575Z,49.55
2019-04-16T11:33:30.338Z,42.98
2019-04-16T11:35:58.826Z,45.48
2019-04-16T11:38:28.374Z,42.45
2019-04-16T11:40:57.827Z,45.50
2019-04-16T11:43:26.594Z,43.08
2019-04-16T11:45:55.209Z,44.83
2019-04-16T11:48:23.949Z,43.68
2019-04-16T11:50:52.599Z,48.73
2019-04-16T11:53:21.375Z,45.05
2019-04-16T11:55:49.933Z,44.15
2019-04-16T11:58:20.257Z,40.90
2019-04-16T12:00:59.040Z,44.18
2019-04-16T12:03:29.134Z,46.33
2019-04-16T12:06:27.717Z,44.33
2019-04-16T12:08:50.767Z,42.88
2019-04-16T12:11:20.988Z,44.42
2019-04-16T12:14:10.267Z,49.03
2019-04-16T12:16:56.924Z,45.73
2019-04-16T12:19:29.846Z,46.18
2019-04-16T12:22:15.390Z,47.80
2019-04-16T12:24:45.423Z,50.78
2019-04-16T12:27:31.925Z,51.30
2019-04-16T12:30:02.203Z,47.03
2019-04-16T12:32:38.460Z,49.90
2019-04-16T12:35:26.763Z,53.80
2019-04-16T12:38:06.404Z,54.85
2019-04-16T12:40:54.089Z,55.70
2019-04-16T12:43:36.230Z,51.48
2019-04-16T12:46:17.527Z,49.05
2019-04-16T12:48:55.546Z,60.80
2019-04-16T12:51:44.074Z,52.03
2019-04-16T12:54:14.261Z,54.48
2019-04-16T12:56:47.382Z,50.33
2019-04-16T12:59:22.905Z,53.68
2019-04-16T13:02:12.185Z,53.33
2019-04-16T13:04:49.493Z,49.45
2019-04-16T13:07:22.376Z,44.95
2019-04-16T13:09:58.724Z,56.70
2019-04-16T13:12:34.778Z,44.93
2019-04-16T13:15:11.569Z,49.98
2019-04-16T13:17:47.895Z,50.90
2019-04-16T13:20:19.284Z,42.27
2019-04-16T13:22:49.612Z,47.53
2019-04-16T13:25:19.911Z,48.17
2019-04-16T13:27:50.868Z,47.93
2019-04-16T13:30:20.152Z,40.83
2019-04-16T13:32:48.864Z,43.75
2019-04-16T13:35:17.541Z,44.20
2019-04-16T13:37:46.217Z,44.63
2019-04-16T13:40:16.565Z,40.23
2019-04-16T13:42:45.287Z,43.17
2019-04-16T13:45:18.761Z,43.10
2019-04-16T13:47:48.169Z,44.00
2019-04-16T13:50:18.258Z,50.40
2019-04-16T13:52:48.298Z,44.10
2019-04-16T13:55:18.497Z,44.48
2019-04-16T13:58:04.251Z,49.10
2019-04-16T14:00:46.680Z,42.73
2019-04-16T14:03:16.934Z,44.53
2019-04-16T14:05:45.678Z,40.38
2019-04-16T14:08:14.277Z,41.53
2019-04-16T14:10:43.445Z,41.02
2019-04-16T14:13:13.618Z,37.85
2019-04-16T14:15:44.718Z,35.40
2019-04-16T14:18:12.704Z,36.83
2019-04-16T14:20:41.030Z,39.38
2019-04-16T14:23:09.657Z,42.05
2019-04-16T14:25:37.964Z,42.10
2019-04-16T14:28:06.652Z,39.55
2019-04-16T14:30:39.553Z,39.03
2019-04-16T14:33:07.635Z,36.42
2019-04-16T14:35:40.072Z,34.95
2019-04-16T14:40:34.976Z,36.80
2019-04-16T14:43:03.272Z,36.05
2019-04-16T14:45:53.462Z,39.53
2019-04-16T14:48:08.900Z,35.52
2019-04-16T14:50:37.169Z,36.20
2019-04-16T14:53:05.881Z,34.75
2019-04-16T14:55:59.023Z,38.33
2019-04-16T14:58:29.545Z,33.05
2019-04-16T15:01:25.705Z,36.90
2019-04-16T15:04:01.696Z,35.13
2019-04-16T15:06:49.191Z,33.25
2019-04-16T15:09:45.218Z,36.55
2019-04-16T15:12:21.409Z,36.93
2019-04-16T15:14:57.611Z,40.28
2019-04-16T15:17:44.202Z,42.35
2019-04-16T15:20:23.552Z,40.90
2019-04-16T15:23:08.896Z,39.23
2019-04-16T15:25:54.941Z,46.00
2019-04-16T15:28:25.164Z,46.85
2019-04-16T15:31:10.288Z,40.60
2019-04-16T15:33:40.212Z,37.45
2019-04-16T15:36:10.472Z,43.27
2019-04-16T15:38:43.224Z,42.27
2019-04-16T15:41:17.231Z,47.05
2019-04-16T15:44:02.074Z,43.28
2019-04-16T15:46:35.048Z,44.38
2019-04-16T15:49:07.056Z,43.00
2019-04-16T15:51:37.408Z,44.40
2019-04-16T15:54:10.586Z,44.20
2019-04-16T15:56:46.817Z,44.10
2019-04-16T15:59:16.967Z,40.80
2019-04-16T16:02:03.704Z,40.23
2019-04-16T16:04:49.513Z,35.03
2019-04-16T16:07:23.991Z,38.55
2019-04-16T16:09:52.252Z,43.17
2019-04-16T16:12:22.946Z,42.33
2019-04-16T16:14:51.729Z,47.08
2019-04-16T16:17:22.572Z,41.25
2019-04-16T16:19:50.692Z,41.83
2019-04-16T16:22:19.380Z,43.42
2019-04-16T16:24:48.056Z,43.83
2019-04-16T16:27:16.382Z,40.30
2019-04-16T16:29:45.060Z,42.00
2019-04-16T16:32:15.724Z,40.92
2019-04-16T16:34:44.056Z,46.20
2019-04-16T16:37:12.737Z,47.27
2019-04-16T16:39:41.089Z,41.75
2019-04-16T16:42:10.081Z,41.45
2019-04-16T16:44:38.432Z,38.10
2019-04-16T16:47:08.688Z,43.85
2019-04-16T16:49:37.181Z,37.28
2019-04-16T16:52:23.585Z,37.40
2019-04-16T16:54:53.600Z,38.75
2019-04-16T16:57:23.561Z,41.27
2019-04-16T16:59:54.003Z,44.05
2019-04-16T17:02:27.221Z,38.78
2019-04-16T17:04:57.486Z,39.33
2019-04-16T17:07:26.181Z,40.80
2019-04-16T17:09:54.840Z,40.00
2019-04-16T17:12:23.504Z,38.20
2019-04-16T17:14:52.691Z,40.33
2019-04-16T17:17:21.300Z,39.95
2019-04-16T17:19:50.778Z,44.40
2019-04-16T17:22:19.495Z,46.95
2019-04-16T17:24:48.709Z,39.70
2019-04-16T17:27:17.271Z,40.23
2019-04-16T17:29:49.984Z,40.70
2019-04-16T17:32:19.131Z,40.35
2019-04-16T17:34:50.564Z,42.27
2019-04-16T17:37:21.381Z,42.55
2019-04-16T17:39:53.736Z,46.42
2019-04-16T17:42:23.709Z,39.30
2019-04-16T17:45:09.996Z,32.67
2019-04-16T17:47:55.658Z,35.75
2019-04-16T17:50:40.327Z,41.37
2019-04-16T17:53:10.469Z,39.58
2019-04-16T17:55:52.976Z,45.12
2019-04-16T17:58:24.171Z,45.52
2019-04-16T18:01:01.196Z,41.53
2019-04-16T18:03:43.351Z,43.05
2019-04-16T18:06:16.442Z,46.45
2019-04-16T18:09:04.457Z,44.88
2019-04-16T18:11:37.586Z,44.30
2019-04-16T18:14:11.257Z,54.55
2019-04-16T18:16:39.633Z,42.73
2019-04-16T18:19:09.808Z,43.60
2019-04-16T18:21:48.989Z,44.60
2019-04-16T18:24:25.341Z,45.15
2019-04-16T18:26:55.557Z,45.10
2019-04-16T18:29:31.774Z,45.92
2019-04-16T18:32:03.478Z,37.25
2019-04-16T18:34:46.940Z,41.63
2019-04-16T18:37:23.157Z,43.50
2019-04-16T18:40:09.377Z,45.43
2019-04-16T18:42:51.749Z,39.20
2019-04-16T18:45:40.260Z,43.28
2019-04-16T18:48:15.947Z,46.15
2019-04-16T18:50:44.354Z,42.25
2019-04-16T18:53:12.917Z,42.43
2019-04-16T18:55:41.245Z,39.42
2019-04-16T18:58:09.921Z,41.88
2019-04-16T19:00:52.758Z,41.50
2019-04-16T19:03:21.647Z,42.30
2019-04-16T19:05:50.300Z,37.80
2019-04-16T19:08:18.763Z,37.70
2019-04-16T19:10:47.511Z,43.92
2019-04-16T19:13:19.741Z,42.10
2019-04-16T19:15:46.452Z,47.40
2019-04-16T19:18:19.510Z,49.45
2019-04-16T19:20:45.537Z,48.95
2019-04-16T19:23:14.069Z,58.92
2019-04-16T19:25:42.749Z,56.28
2019-04-16T19:28:11.433Z,59.90
2019-04-16T19:30:40.111Z,53.35
2019-04-16T19:33:08.801Z,51.15
2019-04-16T19:35:37.678Z,52.50
2019-04-16T19:38:07.537Z,60.83
2019-04-16T19:40:36.082Z,49.60
2019-04-16T19:43:04.805Z,53.80
2019-04-16T19:45:33.453Z,55.78
2019-04-16T19:48:02.424Z,56.20
2019-04-16T19:50:36.076Z,51.18
2019-04-16T19:53:02.393Z,51.33
2019-04-16T19:55:31.061Z,56.30
2019-04-16T19:57:59.800Z,59.55
2019-04-16T20:00:28.436Z,55.05
2019-04-16T20:02:57.233Z,56.28
2019-04-16T20:05:28.724Z,55.90
2019-04-16T20:07:56.212Z,61.42
2019-04-16T20:10:24.827Z,59.13
2019-04-16T20:12:53.141Z,57.08
2019-04-16T20:15:21.779Z,59.50
2019-04-16T20:17:50.486Z,56.45
2019-04-16T20:20:19.158Z,65.65
2019-04-16T20:22:48.253Z,68.20
2019-04-16T20:25:16.946Z,73.50
2019-04-16T20:27:46.450Z,68.62
2019-04-16T20:30:15.482Z,75.40
2019-04-16T20:32:43.808Z,70.20
2019-04-16T20:35:17.890Z,72.25
2019-04-16T20:37:42.837Z,73.60
2019-04-16T20:40:14.529Z,78.22
2019-04-16T20:42:41.940Z,83.87
2019-04-16T20:45:11.268Z,82.50
2019-04-16T20:47:40.206Z,86.90
2019-04-16T20:50:08.718Z,80.62
2019-04-16T20:52:37.391Z,87.85
2019-04-16T20:55:06.094Z,86.60
2019-04-16T20:57:34.768Z,90.07
2019-04-16T21:00:10.848Z,91.78
2019-04-16T21:02:38.333Z,83.65
2019-04-16T21:05:21.548Z,90.42
2019-04-16T21:07:37.788Z,97.92
2019-04-16T21:10:06.941Z,89.03
2019-04-16T21:12:55.106Z,85.57
2019-04-16T21:15:27.502Z,91.87
2019-04-16T21:17:55.520Z,83.10
2019-04-16T21:20:24.156Z,90.65
2019-04-16T21:22:52.907Z,88.40
2019-04-16T21:25:21.730Z,86.22
2019-04-16T21:28:00.945Z,94.95
2019-04-16T21:30:29.548Z,86.63
2019-04-16T21:33:17.644Z,90.77
2019-04-16T21:35:52.921Z,94.70
2019-04-16T21:38:23.081Z,98.65
2019-04-16T21:40:52.818Z,92.35
2019-04-16T21:43:22.057Z,94.22
2019-04-16T21:45:50.748Z,93.03
2019-04-16T21:48:19.431Z,98.33
2019-04-16T21:50:48.294Z,98.05
2019-04-16T21:53:17.209Z,94.22
2019-04-16T21:55:45.916Z,93.67
2019-04-16T21:58:17.606Z,96.45
2019-04-16T22:00:52.602Z,91.25
2019-04-16T22:03:22.614Z,93.42
2019-04-16T22:05:51.327Z,99.67
2019-04-16T22:08:20.018Z,91.82
2019-04-16T22:10:48.674Z,95.55
2019-04-16T22:13:19.398Z,88.10
2019-04-16T22:15:47.684Z,100.38
2019-04-16T22:18:16.355Z,88.65
2019-04-16T22:20:45.060Z,102.85
2019-04-16T22:23:19.019Z,106.20
2019-04-16T22:25:44.162Z,97.92
2019-04-16T22:28:13.572Z,93.03
2019-04-16T22:30:42.317Z,92.72
2019-04-16T22:33:10.913Z,96.80
2019-04-16T22:35:39.281Z,95.72
2019-04-16T22:38:13.527Z,89.95
2019-04-16T22:40:56.557Z,91.22
2019-04-16T22:43:43.432Z,89.83
2019-04-16T22:46:14.149Z,88.78
2019-04-16T22:48:56.615Z,95.97
2019-04-16T22:51:25.858Z,95.35
2019-04-16T22:53:54.529Z,97.65
2019-04-16T22:56:28.121Z,89.62
2019-04-16T22:58:55.145Z,92.42
2019-04-16T23:01:28.512Z,87.27
2019-04-16T23:03:57.006Z,92.50
2019-04-16T23:06:25.324Z,93.20
2019-04-16T23:08:53.980Z,98.35
2019-04-16T23:11:23.717Z,86.53
2019-04-16T23:13:52.558Z,90.03
2019-04-16T23:16:20.868Z,92.95
2019-04-16T23:18:49.996Z,92.40
2019-04-16T23:21:18.620Z,98.33
2019-04-16T23:23:47.685Z,88.33
2019-04-16T23:26:17.320Z,98.83
2019-04-16T23:28:46.022Z,91.12
2019-04-16T23:31:14.700Z,92.62
2019-04-16T23:33:43.392Z,92.37
2019-04-16T23:36:15.001Z,94.80
2019-04-16T23:38:42.418Z,94.37
2019-04-16T23:41:15.318Z,97.35
2019-04-16T23:43:59.244Z,105.17
2019-04-16T23:46:45.745Z,110.03
2019-04-16T23:49:35.017Z,91.92
2019-04-16T23:52:05.223Z,94.25
2019-04-16T23:54:52.043Z,99.30
2019-04-16T23:57:25.577Z,92.70
